Time;durP1;ratioP1;P1;durP2;ratioP2;P2;SDS_P1;SDS_P2;PMS_P1;PMS_P2;Temp;Humidity;BMP_temperature;BMP_pressure;BME280_temperature;BME280_humidity;BME280_pressure;Samples;Min_cycle;Max_cycle;Signal;HPM_P1;HPM_P2
2021/12/17 00:04:57;;;;;;;;;69.25;52.25;;;;;6.78;75.31;103448.75;4997847;28;45394;-68
2021/12/17 00:07:24;;;;;;;;;62.25;47.25;;;;;6.70;75.75;103438.56;4998399;28;45421;-68
2021/12/17 00:09:51;;;;;;;;;60.50;47.25;;;;;6.64;75.48;103438.06;4998892;28;46397;-68
2021/12/17 00:12:21;;;;;;;;;57.25;47.00;;;;;6.69;75.53;103451.56;4998328;28;45439;-68
2021/12/17 00:14:49;;;;;;;;;65.75;50.00;;;;;6.61;75.95;103444.75;5012451;28;45284;-68
2021/12/17 00:17:19;;;;;;;;;58.00;46.25;;;;;6.68;74.35;103444.47;4998233;28;45352;-68
2021/12/17 00:50:04;;;;;;;;;58.25;47.75;;;;;6.69;78.09;103443.66;4997099;28;45427;-68
2021/12/17 00:52:34;;;;;;;;;63.25;49.50;;;;;6.63;76.46;103427.41;4997047;28;45905;-68
2021/12/17 00:55:00;;;;;;;;;57.75;47.75;;;;;6.73;77.70;103437.88;4998120;28;45245;-68
2021/12/17 00:57:30;;;;;;;;;54.50;44.75;;;;;6.61;75.43;103411.53;4996618;28;45275;-68
2021/12/17 00:59:57;;;;;;;;;63.50;49.75;;;;;6.70;78.29;103430.66;5012966;28;46132;-68
2021/12/17 01:02:31;;;;;;;;;60.00;44.50;;;;;6.73;76.75;103428.28;4995125;28;45504;-68
2021/12/17 01:04:59;;;;;;;;;63.50;50.25;;;;;6.70;77.48;103424.50;5012554;28;45304;-68
2021/12/17 01:07:33;;;;;;;;;51.50;42.50;;;;;6.76;76.31;103431.97;4995422;28;45259;-68
2021/12/17 01:10:00;;;;;;;;;58.25;43.75;;;;;6.67;77.41;103419.91;4996116;28;45472;-68
2021/12/17 01:12:25;;;;;;;;;56.25;46.00;;;;;6.77;76.64;103432.06;5012836;28;48208;-68
2021/12/17 01:14:52;;;;;;;;;58.75;43.50;;;;;6.61;76.59;103403.63;4996577;28;45495;-68
2021/12/17 01:17:21;;;;;;;;;57.00;44.00;;;;;6.73;76.48;103430.91;4997468;28;45354;-68
2021/12/17 01:20:19;;;;;;;;;61.75;43.75;;;;;6.75;77.42;103433.69;4995841;28;45261;-68
2021/12/17 01:35:21;;;;;;;;;57.25;43.50;;;;;6.72;77.88;103430.78;4998251;28;45317;-67
2021/12/17 01:36:24;;;;;;;;;63.50;45.00;;;;;6.63;77.24;103430.03;4995566;28;45386;-67
2021/12/17 01:41:48;;;;;;;;;58.25;46.75;;;;;6.61;77.30;103424.66;4996130;28;45598;-70
2021/12/17 01:44:15;;;;;;;;;54.75;44.25;;;;;6.63;77.11;103422.13;4995574;28;46658;-68
2021/12/17 01:46:43;;;;;;;;;54.25;44.25;;;;;6.60;75.78;103414.00;4998024;28;45243;-70
2021/12/17 02:00:22;;;;;;;;;63.00;47.25;;;;;6.37;77.29;103386.75;5000591;28;45405;-69
2021/12/17 02:02:51;;;;;;;;;47.25;40.50;;;;;6.41;76.16;103401.03;4997565;28;46233;-70
2021/12/17 02:05:16;;;;;;;;;55.25;42.50;;;;;6.43;76.10;103404.72;5000692;28;46326;-69
2021/12/17 02:07:44;;;;;;;;;55.75;43.75;;;;;6.49;76.23;103423.63;4998762;28;45673;-68
2021/12/17 02:28:48;;;;;;;;;58.50;45.25;;;;;6.37;76.46;103420.00;5000017;28;45338;-67
2021/12/17 02:33:40;;;;;;;;;55.00;44.00;;;;;6.24;76.52;103405.81;4998522;28;45348;-68
2021/12/17 02:36:06;;;;;;;;;59.75;43.50;;;;;6.32;76.27;103416.06;5000340;28;45420;-67
2021/12/17 02:38:37;;;;;;;;;54.00;45.00;;;;;6.25;76.44;103404.13;4999446;28;45428;-67
2021/12/17 02:46:36;;;;;;;;;62.25;46.00;;;;;6.22;76.87;103399.53;5000524;28;45246;-68
2021/12/17 02:49:01;;;;;;;;;58.25;46.00;;;;;6.21;76.81;103407.28;4996737;28;45333;-67
2021/12/17 02:51:27;;;;;;;;;59.00;43.00;;;;;6.24;76.79;103416.31;5000468;28;45281;-67
2021/12/17 02:53:53;;;;;;;;;53.25;43.00;;;;;6.13;77.08;103396.09;4997824;28;45518;-67
2021/12/17 02:56:19;;;;;;;;;59.50;46.00;;;;;6.15;76.44;103402.41;5000444;28;45516;-70
2021/12/17 02:58:45;;;;;;;;;57.75;45.25;;;;;6.06;76.83;103380.66;4996572;28;45590;-67
2021/12/17 03:01:12;;;;;;;;;57.50;45.75;;;;;6.18;76.85;103410.56;5000549;28;45299;-68
2021/12/17 03:03:39;;;;;;;;;51.75;41.50;;;;;6.16;77.22;103404.28;4999086;28;46921;-68
2021/12/17 03:06:04;;;;;;;;;49.25;40.00;;;;;6.19;76.77;103404.53;5000150;28;45432;-67
2021/12/17 03:08:30;;;;;;;;;52.75;41.00;;;;;6.21;76.16;103407.28;4997707;28;45445;-67
2021/12/17 03:10:57;;;;;;;;;48.50;40.75;;;;;5.95;76.27;103356.13;5000500;28;45418;-67
2021/12/17 03:13:24;;;;;;;;;62.00;47.00;;;;;6.16;77.58;103401.66;4997637;28;45473;-68
2021/12/17 03:15:56;;;;;;;;;51.50;41.50;;;;;6.22;77.39;103398.63;5000015;28;45288;-67
2021/12/17 03:23:42;;;;;;;;;51.75;40.00;;;;;6.26;76.16;103403.31;4997913;28;45293;-68
2021/12/17 03:26:15;;;;;;;;;53.25;42.75;;;;;6.24;77.62;103392.69;4999995;28;45436;-67
2021/12/17 03:28:46;;;;;;;;;56.00;47.00;;;;;6.17;77.89;103394.69;4998837;28;45365;-67
2021/12/17 03:31:13;;;;;;;;;56.50;44.50;;;;;6.19;77.50;103386.16;4998649;28;45321;-67
2021/12/17 03:33:42;;;;;;;;;56.50;44.00;;;;;6.25;77.72;103391.91;4997513;28;46663;-67
2021/12/17 03:36:09;;;;;;;;;54.75;42.75;;;;;6.28;76.03;103393.88;4999526;28;45439;-67
2021/12/17 03:38:35;;;;;;;;;58.50;44.50;;;;;6.11;76.97;103371.47;4997065;28;45406;-67
2021/12/17 03:43:46;;;;;;;;;45.00;37.00;;;;;6.28;76.82;103404.38;4997182;28;45353;-68
2021/12/17 03:46:12;;;;;;;;;52.50;43.00;;;;;6.23;77.41;103398.72;4998198;28;47107;-67
2021/12/17 03:48:39;;;;;;;;;55.75;44.50;;;;;6.28;78.12;103410.53;4997272;28;45397;-67
2021/12/17 03:51:12;;;;;;;;;60.50;45.00;;;;;6.27;78.24;103406.09;4999485;28;45227;-68
2021/12/17 03:53:39;;;;;;;;;57.50;44.50;;;;;6.28;77.12;103407.91;4996989;28;45328;-67
2021/12/17 03:56:05;;;;;;;;;52.75;40.25;;;;;6.21;76.99;103391.50;4999480;28;45499;-67
2021/12/17 03:58:30;;;;;;;;;56.50;42.75;;;;;6.27;77.23;103392.00;4997069;28;45424;-68
2021/12/17 04:00:55;;;;;;;;;60.75;48.50;;;;;6.40;77.40;103412.34;4999565;28;45369;-69
2021/12/17 04:03:21;;;;;;;;;59.75;44.25;;;;;6.43;77.91;103410.91;4996855;28;46075;-68
2021/12/17 04:05:46;;;;;;;;;55.25;45.25;;;;;6.40;78.06;103401.84;4997916;28;47883;-69
2021/12/17 04:08:12;;;;;;;;;62.00;49.50;;;;;6.49;77.92;103405.22;4998299;28;45479;-69
2021/12/17 04:10:44;;;;;;;;;45.00;35.50;;;;;6.52;77.39;103399.31;4999426;28;45825;-69
2021/12/17 04:15:54;;;;;;;;;42.50;36.50;;;;;6.67;76.92;103400.59;4997046;28;46289;-69
2021/12/17 04:18:19;;;;;;;;;58.25;44.00;;;;;6.60;77.53;103388.63;4997791;28;46105;-68
2021/12/17 04:20:44;;;;;;;;;54.75;42.50;;;;;6.67;77.63;103391.00;4999167;28;45219;-69
2021/12/17 04:23:10;;;;;;;;;56.75;43.50;;;;;6.62;77.72;103373.91;4998014;28;45273;-69
2021/12/17 04:25:35;;;;;;;;;45.75;39.25;;;;;6.73;77.60;103372.19;4999056;28;46062;-70
2021/12/17 04:28:01;;;;;;;;;54.75;43.00;;;;;6.79;76.77;103372.66;4996732;28;45369;-70
2021/12/17 04:30:28;;;;;;;;;39.00;37.00;;;;;6.86;76.31;103377.63;4996411;28;45213;-69
2021/12/17 04:32:54;;;;;;;;;46.75;38.50;;;;;6.93;76.31;103387.84;5011882;28;47093;-70
2021/12/17 04:35:20;;;;;;;;;50.50;41.75;;;;;7.01;77.48;103390.19;4998438;28;45343;-69
2021/12/17 04:37:45;;;;;;;;;54.25;40.50;;;;;7.00;76.69;103381.38;4996354;28;45535;-69
2021/12/17 04:40:12;;;;;;;;;53.00;39.00;;;;;7.02;77.01;103373.59;4997618;28;45537;-70
2021/12/17 04:42:51;;;;;;;;;54.75;42.25;;;;;7.07;76.18;103380.16;4996972;28;45535;-70
2021/12/17 04:45:16;;;;;;;;;48.75;40.25;;;;;7.04;77.24;103369.38;4997629;28;45433;-69
2021/12/17 04:58:38;;;;;;;;;53.50;40.25;;;;;7.29;76.94;103378.44;4996316;28;45353;-70
2021/12/17 05:01:09;;;;;;;;;49.25;38.25;;;;;7.29;76.88;103372.25;4998603;28;45448;-70
2021/12/17 05:03:34;;;;;;;;;39.00;33.50;;;;;7.38;76.37;103379.16;4994410;28;45401;-71
2021/12/17 05:06:00;;;;;;;;;38.00;34.75;;;;;7.42;76.30;103376.75;4997829;28;45221;-70
2021/12/17 05:08:26;;;;;;;;;49.75;40.50;;;;;7.42;76.59;103371.50;4995545;28;44850;-69
2021/12/17 05:18:54;;;;;;;;;45.25;39.00;;;;;7.62;77.32;103385.44;4992901;28;48020;-70
2021/12/17 05:21:22;;;;;;;;;44.50;37.25;;;;;7.43;75.95;103349.66;4995590;28;45442;-69
2021/12/17 05:23:51;;;;;;;;;43.25;36.50;;;;;7.52;76.15;103356.53;4994575;28;45960;-70
2021/12/17 05:26:18;;;;;;;;;49.00;38.50;;;;;7.65;76.83;103379.47;5001251;28;45455;-69
2021/12/17 05:28:43;;;;;;;;;41.50;37.75;;;;;7.73;77.04;103385.31;5000023;28;45452;-70
2021/12/17 05:31:09;;;;;;;;;46.50;37.50;;;;;7.68;76.53;103377.09;5001183;28;45417;-70
2021/12/17 05:33:34;;;;;;;;;42.25;36.75;;;;;7.70;77.02;103378.13;4998911;28;45649;-70
2021/12/17 05:36:00;;;;;;;;;51.00;38.00;;;;;7.73;76.53;103369.53;4999982;28;47120;-69
2021/12/17 05:38:27;;;;;;;;;37.50;36.25;;;;;7.77;76.58;103376.88;4996660;28;45300;-70
2021/12/17 05:40:54;;;;;;;;;43.75;39.50;;;;;7.78;76.22;103373.44;5001515;28;45303;-70
2021/12/17 05:43:19;;;;;;;;;46.50;37.50;;;;;7.65;76.64;103340.00;4999330;28;45487;-69
2021/12/17 05:48:17;;;;;;;;;39.25;36.50;;;;;7.84;76.16;103360.72;4995938;28;45354;-70
2021/12/17 05:50:47;;;;;;;;;53.25;38.25;;;;;7.83;76.17;103362.47;5001329;28;45365;-71
2021/12/17 05:53:13;;;;;;;;;49.25;42.25;;;;;7.79;75.72;103357.78;4995975;28;45420;-70
2021/12/17 05:55:39;;;;;;;;;40.75;33.25;;;;;7.97;76.52;103374.03;4996194;28;45632;-69
2021/12/17 05:58:05;;;;;;;;;38.75;35.75;;;;;7.97;76.28;103376.69;4997137;28;45480;-70
2021/12/17 06:00:32;;;;;;;;;49.25;37.50;;;;;7.99;75.82;103375.09;4997750;28;45301;-70
2021/12/17 06:02:59;;;;;;;;;43.00;35.50;;;;;7.98;76.46;103375.91;4997360;28;45798;-70
2021/12/17 06:05:26;;;;;;;;;44.50;38.25;;;;;7.98;75.86;103373.28;4999187;28;45455;-70
2021/12/17 06:07:51;;;;;;;;;41.50;36.50;;;;;7.97;75.67;103368.78;4999258;28;45445;-69
2021/12/17 06:10:17;;;;;;;;;38.75;33.50;;;;;7.91;76.11;103355.16;5000658;28;45239;-70
2021/12/17 06:12:43;;;;;;;;;34.75;29.00;;;;;7.88;76.09;103343.47;4999318;28;45282;-70
2021/12/17 06:15:13;;;;;;;;;47.00;37.75;;;;;7.88;75.36;103346.09;4992521;28;45642;-70
2021/12/17 06:17:39;;;;;;;;;43.50;35.50;;;;;7.98;75.78;103373.28;4999155;28;45341;-70
2021/12/17 06:20:07;;;;;;;;;48.75;35.50;;;;;8.00;76.25;103369.00;4993449;28;45319;-70
2021/12/17 06:22:32;;;;;;;;;50.25;38.00;;;;;7.95;75.95;103364.19;4999643;28;45356;-69
2021/12/17 06:24:58;;;;;;;;;40.25;34.50;;;;;7.98;75.27;103370.63;4996631;28;46555;-70
2021/12/17 06:27:24;;;;;;;;;44.75;37.75;;;;;8.02;75.65;103374.41;4997858;28;45350;-70
2021/12/17 06:29:50;;;;;;;;;45.50;33.00;;;;;8.01;75.70;103367.28;4994157;28;45315;-70
2021/12/17 06:32:17;;;;;;;;;52.25;39.25;;;;;8.01;75.97;103383.09;5001085;28;45326;-69
2021/12/17 06:34:42;;;;;;;;;53.00;40.75;;;;;8.04;75.81;103383.34;4994569;28;45487;-69
2021/12/17 06:37:08;;;;;;;;;56.75;44.25;;;;;8.01;76.27;103369.91;4999271;28;45424;-69
2021/12/17 06:39:34;;;;;;;;;54.25;41.75;;;;;8.01;75.76;103372.56;4994700;28;46146;-69
2021/12/17 06:42:00;;;;;;;;;53.75;41.75;;;;;8.04;76.00;103380.72;5016176;28;45933;-69
2021/12/17 06:44:27;;;;;;;;;158.00;134.75;;;;;8.04;75.98;103383.34;4994460;28;46252;-69
2021/12/17 07:11:13;;;;;;;;;56.75;44.00;;;;;8.04;76.26;103376.34;5000248;28;45333;-70
2021/12/17 07:32:35;;;;;;;;;55.00;44.00;;;;;8.18;76.40;103389.66;4999697;28;45310;-70
2021/12/17 07:39:52;;;;;;;;;73.25;56.50;;;;;8.17;75.70;103394.00;4994886;28;45395;-70
2021/12/17 07:42:17;;;;;;;;;59.75;47.50;;;;;7.96;76.21;103379.22;5000195;28;45294;-70
2021/12/17 07:44:43;;;;;;;;;51.00;40.00;;;;;8.06;76.38;103380.00;4994934;28;45370;-70
2021/12/17 07:47:08;;;;;;;;;54.25;41.50;;;;;8.13;76.33;103384.03;4999261;28;45505;-70
2021/12/17 07:49:33;;;;;;;;;57.25;42.00;;;;;8.13;76.08;103381.41;4993022;28;45367;-69
2021/12/17 07:51:59;;;;;;;;;79.25;61.25;;;;;8.32;76.10;103417.03;4986888;28;45291;-71
2021/12/17 07:54:25;;;;;;;;;80.00;60.00;;;;;8.33;76.02;103410.97;4993988;28;45636;-71
2021/12/17 07:56:50;;;;;;;;;91.00;67.00;;;;;8.28;76.19;103398.34;4995731;28;45322;-71
2021/12/17 07:59:15;;;;;;;;;161.00;141.50;;;;;8.25;75.80;103389.31;4994226;28;45373;-71
2021/12/17 08:01:41;;;;;;;;;83.50;65.25;;;;;8.38;76.08;103405.25;4997382;28;45298;-71
2021/12/17 08:04:08;;;;;;;;;72.50;55.75;;;;;8.37;75.81;103408.66;4996122;28;45290;-71
2021/12/17 08:06:34;;;;;;;;;56.25;45.50;;;;;8.28;75.79;103387.81;4997481;28;45497;-71
2021/12/17 08:09:00;;;;;;;;;57.00;46.75;;;;;8.37;76.34;103398.13;4997854;28;45300;-71
2021/12/17 08:11:27;;;;;;;;;65.25;51.75;;;;;8.30;75.81;103383.59;4999197;28;45234;-71
2021/12/17 08:13:55;;;;;;;;;57.75;47.50;;;;;8.39;75.86;103399.19;4993272;28;45495;-71
2021/12/17 08:31:36;;;;;;;;;44.25;40.00;;;;;8.49;75.76;103400.81;4999628;28;45206;-71
2021/12/17 08:34:03;;;;;;;;;55.25;42.25;;;;;8.62;76.27;103415.81;4991406;28;47171;-70
2021/12/17 08:36:29;;;;;;;;;92.25;79.50;;;;;8.61;75.90;103411.34;4997529;28;47807;-70
2021/12/17 08:38:54;;;;;;;;;54.50;45.00;;;;;8.56;75.83;103405.72;4990658;28;45345;-70
2021/12/17 08:41:21;;;;;;;;;100.33;95.67;;;;;8.48;75.89;103386.69;4999428;28;45338;-70
2021/12/17 08:43:47;;;;;;;;;48.50;36.50;;;;;8.65;75.93;103418.69;4991916;28;47361;-71
2021/12/17 08:46:13;;;;;;;;;61.00;47.25;;;;;8.68;76.03;103417.22;4998814;28;45403;-71
2021/12/17 08:48:38;;;;;;;;;54.00;42.50;;;;;8.67;75.59;103403.91;5007695;28;45827;-70
2021/12/17 08:51:06;;;;;;;;;63.75;50.00;;;;;8.64;75.87;103393.13;4997639;28;45456;-70
2021/12/17 08:53:32;;;;;;;;;66.50;53.50;;;;;8.69;75.80;103391.75;4993216;28;46214;-70
2021/12/17 08:55:58;;;;;;;;;89.00;70.00;;;;;8.69;75.85;103391.75;4995333;28;45337;-69
2021/12/17 08:58:23;;;;;;;;;53.50;43.75;;;;;8.69;75.87;103390.03;4994223;28;45299;-71
2021/12/17 09:00:48;;;;;;;;;54.00;40.25;;;;;8.78;75.57;103402.06;4999907;28;45229;-70
2021/12/17 09:03:14;;;;;;;;;58.25;45.25;;;;;8.72;75.70;103391.97;4998926;28;45271;-71
2021/12/17 09:05:41;;;;;;;;;41.75;37.00;;;;;8.79;75.41;103407.44;5000265;28;45417;-71
2021/12/17 09:08:08;;;;;;;;;50.75;40.50;;;;;8.82;75.71;103415.59;5000700;28;45332;-71
2021/12/17 09:10:35;;;;;;;;;65.75;49.00;;;;;8.82;75.81;103415.59;5000529;28;45369;-71
2021/12/17 09:13:01;;;;;;;;;64.50;50.25;;;;;8.86;76.14;103419.38;5000067;28;45258;-70
2021/12/17 09:15:27;;;;;;;;;58.50;43.50;;;;;8.88;75.73;103415.13;4994108;28;45648;-70
2021/12/17 09:17:53;;;;;;;;;51.50;41.50;;;;;8.92;75.67;103417.16;4999913;28;45528;-71
2021/12/17 09:20:19;;;;;;;;;103.33;90.67;;;;;8.95;75.33;103423.56;4995090;28;45418;-70
2021/12/17 09:22:45;;;;;;;;;42.75;35.00;;;;;8.83;75.54;103412.13;5015875;28;46288;-71
2021/12/17 09:25:10;;;;;;;;;71.25;56.75;;;;;8.95;75.30;103431.50;4997354;28;45309;-71
2021/12/17 09:27:36;;;;;;;;;128.00;116.33;;;;;8.85;75.87;103404.31;5015178;28;45443;-71
2021/12/17 09:30:05;;;;;;;;;65.75;49.75;;;;;8.93;75.24;103425.22;4997589;28;45646;-70
2021/12/17 09:32:30;;;;;;;;;49.00;39.50;;;;;8.96;75.39;103430.72;5000722;28;45186;-70
2021/12/17 09:34:55;;;;;;;;;152.33;134.33;;;;;8.99;75.10;103421.16;4996473;28;45601;-70
2021/12/17 09:37:21;;;;;;;;;87.67;73.67;;;;;8.98;74.93;103419.34;5001156;28;45417;-70
2021/12/17 09:39:47;;;;;;;;;60.50;50.00;;;;;9.11;75.55;103440.53;4995582;28;45414;-70
2021/12/17 09:42:12;;;;;;;;;49.50;40.00;;;;;9.06;74.99;103434.91;5016701;28;47146;-70
2021/12/17 09:44:38;;;;;;;;;39.00;34.75;;;;;9.14;75.23;103435.47;4993956;28;45326;-70
2021/12/17 09:47:04;;;;;;;;;55.50;45.00;;;;;9.12;75.08;103435.34;5001550;28;45316;-71
2021/12/17 09:49:29;;;;;;;;;35.00;29.25;;;;;9.03;74.87;103424.16;4993894;28;45270;-71
2021/12/17 09:51:56;;;;;;;;;40.25;31.75;;;;;9.15;74.73;103451.41;5016862;28;46086;-70
2021/12/17 09:54:22;;;;;;;;;35.25;29.00;;;;;9.11;74.80;103443.19;4995860;28;45387;-70
2021/12/17 09:56:48;;;;;;;;;52.25;40.50;;;;;8.99;74.15;103431.72;4997506;28;45491;-71
2021/12/17 09:59:15;;;;;;;;;45.00;39.50;;;;;9.12;74.31;103458.19;4995447;28;45504;-70
2021/12/17 10:01:43;;;;;;;;;33.25;29.00;;;;;9.11;74.73;103449.38;4998828;28;45258;-71
2021/12/17 10:04:16;;;;;;;;;41.75;31.50;;;;;9.15;74.85;103466.31;4997725;28;46279;-70
2021/12/17 10:06:42;;;;;;;;;60.00;47.00;;;;;9.16;74.51;103471.72;4999320;28;45299;-71
2021/12/17 10:09:07;;;;;;;;;38.50;35.00;;;;;9.14;74.07;103465.41;4998211;28;45339;-70
2021/12/17 10:11:33;;;;;;;;;60.25;46.00;;;;;9.11;74.94;103453.72;5000220;28;45286;-70
2021/12/17 10:14:22;;;;;;;;;58.25;43.50;;;;;9.15;75.10;103463.69;4994420;28;46099;-70
2021/12/17 10:16:48;;;;;;;;;41.00;32.50;;;;;9.15;74.27;103459.31;4993920;28;45425;-70
2021/12/17 10:19:49;;;;;;;;;49.00;38.50;;;;;9.17;74.71;103454.16;4993258;28;45289;-70
2021/12/17 10:22:17;;;;;;;;;74.50;57.50;;;;;9.21;74.28;103448.28;4991442;28;46368;-70
2021/12/17 10:24:56;;;;;;;;;36.25;31.75;;;;;9.16;74.59;103434.78;4995178;28;46649;-69
2021/12/17 10:27:25;;;;;;;;;36.25;31.75;;;;;9.22;74.67;103443.97;5015874;28;45362;-69
2021/12/17 10:29:51;;;;;;;;;84.00;67.00;;;;;9.26;74.69;103443.38;4993816;28;45374;-70
2021/12/17 10:32:23;;;;;;;;;65.00;51.00;;;;;9.18;74.42;103414.69;5000991;28;45396;-70
2021/12/17 10:35:19;;;;;;;;;33.25;28.75;;;;;9.25;74.57;103416.06;4991821;28;45312;-69
2021/12/17 10:37:57;;;;;;;;;59.50;49.25;;;;;9.37;74.21;103424.84;4997733;28;45458;-70
2021/12/17 10:40:28;;;;;;;;;50.00;38.25;;;;;9.39;74.15;103424.97;5011982;28;45259;-69
2021/12/17 10:43:07;;;;;;;;;34.75;33.00;;;;;9.45;74.20;103429.78;4997878;28;45463;-70
2021/12/17 10:45:42;;;;;;;;;48.00;40.00;;;;;9.40;73.96;103401.28;4997847;28;45555;-70
2021/12/17 10:48:30;;;;;;;;;51.75;40.25;;;;;9.52;73.88;103414.47;5011359;28;45376;-70
2021/12/17 10:51:13;;;;;;;;;59.00;47.25;;;;;9.48;74.28;103414.13;5015356;28;45269;-71
2021/12/17 10:53:51;;;;;;;;;69.75;54.00;;;;;9.52;73.69;103400.34;4993264;28;45977;-68
2021/12/17 10:56:17;;;;;;;;;54.25;42.75;;;;;9.52;73.67;103400.34;4995699;28;45437;-68
2021/12/17 10:58:55;;;;;;;;;36.00;26.75;;;;;9.48;73.39;103386.00;4998554;28;45476;-68
2021/12/17 11:01:48;;;;;;;;;45.25;39.25;;;;;9.64;73.15;103395.94;4998070;28;45275;-69
2021/12/17 11:04:23;;;;;;;;;48.75;38.00;;;;;9.69;72.95;103388.31;4988925;28;45821;-69
2021/12/17 11:06:52;;;;;;;;;48.25;39.00;;;;;9.70;72.35;103395.44;5011800;28;45811;-69
2021/12/17 11:09:43;;;;;;;;;62.00;48.75;;;;;9.68;72.56;103379.47;4985982;28;45518;-69
2021/12/17 11:12:15;;;;;;;;;38.25;33.25;;;;;9.72;72.76;103377.94;4989115;28;45657;-69
2021/12/17 11:14:46;;;;;;;;;55.50;42.00;;;;;9.64;72.18;103353.69;4990321;28;45350;-70
2021/12/17 11:17:12;;;;;;;;;161.33;149.00;;;;;9.77;72.50;103363.34;5000354;28;47309;-69
2021/12/17 11:19:40;;;;;;;;;114.00;99.33;;;;;9.75;72.23;103341.22;4993888;28;45517;-71
2021/12/17 11:22:05;;;;;;;;;36.75;34.50;;;;;9.80;72.80;103351.28;5000349;28;45472;-69
2021/12/17 11:24:35;;;;;;;;;54.75;44.50;;;;;9.89;70.99;103361.56;4991059;28;45427;-70
2021/12/17 11:27:06;;;;;;;;;64.50;52.50;;;;;10.00;72.09;103354.38;4999594;28;47626;-71
2021/12/17 11:29:32;;;;;;;;;31.00;28.75;;;;;10.05;71.22;103360.84;4992183;28;46222;-70
2021/12/17 11:32:03;;;;;;;;;111.67;105.33;;;;;10.11;71.18;103365.63;5015231;28;45336;-69
2021/12/17 11:34:30;;;;;;;;;83.00;69.00;;;;;10.11;71.43;103356.00;4991221;28;47650;-70
2021/12/17 11:36:58;;;;;;;;;41.75;37.25;;;;;10.04;71.02;103345.81;4990398;28;47141;-69
2021/12/17 11:39:28;;;;;;;;;70.25;54.25;;;;;10.14;71.43;103349.97;4991680;28;45443;-70
2021/12/17 11:42:24;;;;;;;;;74.00;56.75;;;;;10.14;71.57;103342.06;4999612;28;45288;-69
2021/12/17 11:45:22;;;;;;;;;37.25;33.75;;;;;10.15;70.57;103343.91;4992300;28;46529;-69
2021/12/17 11:47:37;;;;;;;;;67.50;53.25;;;;;10.12;68.96;103339.31;4997810;28;45532;-69
2021/12/17 11:50:05;;;;;;;;;57.25;44.25;;;;;10.18;69.75;103342.38;4995066;28;45333;-69
2021/12/17 11:52:34;;;;;;;;;43.25;36.75;;;;;10.19;67.69;103343.28;5013695;28;45380;-70
2021/12/17 11:55:21;;;;;;;;;38.50;34.75;;;;;10.25;70.13;103333.09;4991863;28;45599;-70
2021/12/17 11:57:51;;;;;;;;;34.25;31.75;;;;;10.21;70.24;103305.56;4996983;28;45473;-70
2021/12/17 12:00:21;;;;;;;;;49.00;39.00;;;;;10.21;68.34;103317.88;5009276;28;45618;-70
2021/12/17 12:02:49;;;;;;;;;36.75;30.25;;;;;10.34;69.44;103335.50;4997523;28;45417;-70
2021/12/17 12:05:35;;;;;;;;;40.75;34.25;;;;;10.37;68.91;103322.50;5013589;28;46285;-70
2021/12/17 12:08:44;;;;;;;;;34.25;29.75;;;;;10.40;67.97;103322.69;4995614;28;46157;-70
2021/12/17 12:11:22;;;;;;;;;32.25;30.75;;;;;10.33;67.54;103304.56;4999043;28;45475;-70
2021/12/17 12:13:51;;;;;;;;;34.50;31.00;;;;;10.38;67.00;103314.63;4997205;28;45365;-71
2021/12/17 12:16:25;;;;;;;;;35.75;29.50;;;;;10.33;68.15;103291.38;4998923;28;45349;-70
2021/12/17 12:18:57;;;;;;;;;31.00;29.25;;;;;10.29;67.18;103293.81;4994237;28;47379;-70
2021/12/17 12:21:33;;;;;;;;;33.75;27.25;;;;;10.42;67.92;103300.81;4997638;28;45455;-70
2021/12/17 12:24:11;;;;;;;;;36.75;30.75;;;;;10.38;68.87;103282.00;4991447;28;45289;-70
2021/12/17 12:26:44;;;;;;;;;42.25;36.00;;;;;10.48;68.24;103288.00;4989162;28;45393;-70
2021/12/17 12:29:15;;;;;;;;;36.50;33.25;;;;;10.66;67.71;103298.84;4992656;28;46474;-70
2021/12/17 12:31:44;;;;;;;;;33.50;31.50;;;;;10.66;66.26;103288.25;4998138;28;45322;-70
2021/12/17 12:34:15;;;;;;;;;29.00;23.00;;;;;10.62;66.82;103280.03;4990568;28;45317;-70
2021/12/17 12:37:04;;;;;;;;;32.50;28.00;;;;;10.72;65.74;103295.66;4998667;28;45409;-71
2021/12/17 12:39:37;;;;;;;;;32.25;28.00;;;;;10.74;65.98;103283.47;4996568;28;46890;-70
2021/12/17 12:42:11;;;;;;;;;30.00;28.00;;;;;10.74;67.59;103281.72;4990667;28;45896;-71
2021/12/17 12:44:42;;;;;;;;;34.50;30.75;;;;;10.74;65.51;103288.75;4990982;28;45350;-71
2021/12/17 12:47:14;;;;;;;;;36.75;35.00;;;;;10.73;66.78;103279.91;4998545;28;45615;-71
2021/12/17 12:49:50;;;;;;;;;30.25;21.50;;;;;10.68;67.89;103270.75;4991668;28;45432;-71
2021/12/17 12:52:21;;;;;;;;;28.00;25.00;;;;;10.77;66.06;103280.09;5014259;28;45354;-71
2021/12/17 12:55:13;;;;;;;;;26.00;23.75;;;;;10.66;66.28;103260.88;4991213;28;45323;-71
2021/12/17 12:57:53;;;;;;;;;34.50;31.00;;;;;10.65;66.98;103249.41;4995688;28;45324;-71
2021/12/17 13:00:33;;;;;;;;;30.00;28.50;;;;;10.92;65.28;103268.75;4996239;28;46363;-71
2021/12/17 13:03:05;;;;;;;;;24.00;21.50;;;;;10.92;65.48;103244.00;4994978;28;45716;-71
2021/12/17 13:05:33;;;;;;;;;32.50;27.00;;;;;11.05;65.83;103267.78;4983782;28;45492;-70
2021/12/17 13:08:00;;;;;;;;;36.25;28.00;;;;;11.00;65.76;103258.63;4993893;28;45548;-71
2021/12/17 13:10:29;;;;;;;;;30.25;27.25;;;;;10.98;66.29;103274.44;4987454;28;46393;-71
2021/12/17 13:13:02;;;;;;;;;28.25;24.75;;;;;10.94;65.69;103274.13;4995165;28;45454;-71
2021/12/17 13:23:26;;;;;;;;;36.25;32.75;;;;;10.67;64.55;103242.50;4992414;28;45310;-70
2021/12/17 13:26:10;;;;;;;;;32.00;28.00;;;;;10.83;65.41;103265.50;5013430;28;45430;-71
2021/12/17 13:28:46;;;;;;;;;29.00;24.75;;;;;10.91;66.07;103266.91;4994080;28;45494;-71
2021/12/17 13:31:12;;;;;;;;;28.00;26.25;;;;;10.92;64.72;103265.16;5011061;28;46787;-71
2021/12/17 13:33:38;;;;;;;;;27.00;22.25;;;;;10.75;65.71;103241.25;4991966;28;45413;-71
2021/12/17 13:36:12;;;;;;;;;27.50;23.00;;;;;10.80;65.38;103261.75;4998095;28;45350;-71
2021/12/17 13:38:40;;;;;;;;;30.50;23.50;;;;;10.78;65.15;103260.75;4993556;28;45333;-71
2021/12/17 13:41:09;;;;;;;;;27.25;22.75;;;;;10.66;65.50;103258.25;5004821;28;45638;-71
2021/12/17 13:43:39;;;;;;;;;30.25;25.75;;;;;10.65;66.02;103259.97;4990557;28;45330;-71
2021/12/17 13:46:05;;;;;;;;;24.00;22.00;;;;;10.44;65.43;103238.34;4999828;28;45273;-71
2021/12/17 13:48:32;;;;;;;;;30.75;25.25;;;;;10.44;65.64;103248.94;4993949;28;47030;-71
2021/12/17 13:50:57;;;;;;;;;39.00;28.25;;;;;10.44;65.48;103251.56;4996619;28;45397;-70
2021/12/17 13:53:23;;;;;;;;;27.25;24.00;;;;;10.40;65.24;103240.72;4996096;28;45440;-71
2021/12/17 13:55:50;;;;;;;;;27.00;21.00;;;;;10.44;66.34;103248.94;4998402;28;45327;-71
2021/12/17 13:58:20;;;;;;;;;33.00;28.00;;;;;10.43;65.89;103248.84;4996157;28;46328;-71
2021/12/17 14:00:49;;;;;;;;;21.75;17.75;;;;;10.25;64.65;103225.69;4997871;28;47132;-71
2021/12/17 14:03:16;;;;;;;;;27.00;23.25;;;;;10.34;66.69;103237.69;4997324;28;46465;-70
2021/12/17 14:05:51;;;;;;;;;34.75;30.75;;;;;10.33;65.90;103233.19;5000566;28;45383;-70
2021/12/17 14:08:21;;;;;;;;;27.75;22.25;;;;;10.36;65.82;103225.47;4999313;28;45296;-70
2021/12/17 14:10:48;;;;;;;;;79.50;60.50;;;;;10.41;65.48;103239.91;4992469;28;45455;-71
2021/12/17 14:13:25;;;;;;;;;152.33;116.33;;;;;10.35;65.80;103232.50;4999459;28;45250;-71
2021/12/17 14:15:53;;;;;;;;;64.50;49.75;;;;;10.30;66.19;103218.06;5005727;28;45444;-70
2021/12/17 14:18:22;;;;;;;;;96.75;73.00;;;;;10.43;66.33;103235.63;4995632;28;45579;-71
2021/12/17 14:20:51;;;;;;;;;50.50;39.25;;;;;10.48;66.45;103232.47;5015431;28;46415;-71
2021/12/17 14:23:20;;;;;;;;;52.25;40.50;;;;;10.46;66.43;103225.25;4997394;28;45560;-71
2021/12/17 14:25:53;;;;;;;;;16.50;12.75;;;;;10.57;65.96;103226.84;5000434;28;45321;-71
2021/12/17 14:28:23;;;;;;;;;120.33;98.33;;;;;10.41;65.92;103201.16;4996253;28;45256;-71
2021/12/17 14:30:59;;;;;;;;;24.50;24.50;;;;;10.69;66.04;103239.91;5000044;28;45621;-70
2021/12/17 14:33:36;;;;;;;;;30.50;28.50;;;;;10.61;66.75;103220.91;4993810;28;45345;-71